createdAt,value
2022-12-29T00:02:45.890Z,100157.11
2022-12-29T00:07:49.233Z,100163.50
2022-12-29T00:13:11.351Z,100155.23
2022-12-29T00:18:14.481Z,100148.33
2022-12-29T00:23:36.406Z,100144.05
2022-12-29T00:29:08.920Z,100151.98
2022-12-29T00:34:31.764Z,100151.92
2022-12-29T00:40:01.099Z,100152.40
2022-12-29T00:45:04.624Z,100157.72
2022-12-29T00:50:08.277Z,100160.30
2022-12-29T00:55:11.429Z,100154.93
2022-12-29T01:00:14.983Z,100154.75
2022-12-29T01:05:18.371Z,100146.08
2022-12-29T01:10:22.500Z,100143.23
2022-12-29T01:15:25.698Z,100140.89
2022-12-29T01:20:29.723Z,100133.12
2022-12-29T01:25:33.462Z,100126.39
2022-12-29T01:30:37.079Z,100117.61
2022-12-29T01:35:40.364Z,100105.55
2022-12-29T01:40:47.994Z,100099.55
2022-12-29T01:45:55.791Z,100095.94
2022-12-29T01:50:58.939Z,100094.88
2022-12-29T01:56:08.720Z,100085.84
2022-12-29T02:01:12.354Z,100079.09
2022-12-29T02:06:27.113Z,100076.35
2022-12-29T02:11:32.096Z,100055.85
2022-12-29T02:17:08.874Z,100071.68
2022-12-29T02:22:15.056Z,100080.23
2022-12-29T02:27:40.137Z,100079.17
2022-12-29T02:33:22.895Z,100081.75
2022-12-29T02:39:01.670Z,100082.98
2022-12-29T02:44:26.055Z,100085.60
2022-12-29T02:49:42.841Z,100089.16
2022-12-29T02:54:46.196Z,100085.06
2022-12-29T03:00:19.047Z,100090.44
2022-12-29T03:05:37.572Z,100091.01
2022-12-29T03:11:01.665Z,100088.13
2022-12-29T03:16:22.613Z,100086.45
2022-12-29T03:21:58.542Z,100075.98
2022-12-29T03:27:07.667Z,100063.02
2022-12-29T03:32:17.625Z,100055.20
2022-12-29T03:37:27.431Z,100031.84
2022-12-29T03:42:34.941Z,100001.62
2022-12-29T03:47:38.359Z,100030.27
2022-12-29T03:52:42.515Z,100028.83
2022-12-29T03:57:45.715Z,100011.23
2022-12-29T04:02:53.319Z,100002.95
2022-12-29T04:08:01.185Z,100002.60
2022-12-29T04:13:04.668Z,100004.70
2022-12-29T04:18:08.130Z,99998.88
2022-12-29T04:23:11.511Z,100002.94
2022-12-29T04:28:16.280Z,100001.40
2022-12-29T04:33:39.890Z,100005.19
2022-12-29T04:38:43.885Z,99980.08
2022-12-29T04:43:47.223Z,99975.12
2022-12-29T04:49:09.885Z,99980.23
2022-12-29T04:54:36.221Z,99978.39
2022-12-29T04:59:45.943Z,99966.31
2022-12-29T05:04:49.265Z,99958.85
2022-12-29T05:09:53.104Z,99952.44
2022-12-29T05:14:56.378Z,99955.22
2022-12-29T05:19:59.763Z,99948.33
2022-12-29T05:25:03.741Z,99949.07
2022-12-29T05:30:10.166Z,99943.22
2022-12-29T05:35:14.067Z,99927.30
2022-12-29T05:40:18.131Z,99920.88
2022-12-29T05:45:21.940Z,99922.27
2022-12-29T05:50:48.002Z,99925.23
2022-12-29T05:55:52.947Z,99923.56
2022-12-29T06:00:57.115Z,99927.21
2022-12-29T06:06:00.667Z,99925.99
2022-12-29T06:11:04.747Z,99927.98
2022-12-29T06:16:08.047Z,99931.38
2022-12-29T06:21:12.729Z,99932.00
2022-12-29T06:26:15.922Z,99925.58
2022-12-29T06:31:21.481Z,99931.27
2022-12-29T06:36:26.868Z,99933.02
2022-12-29T06:41:32.590Z,99928.20
2022-12-29T06:46:56.661Z,99938.48
2022-12-29T06:52:01.757Z,99941.14
2022-12-29T06:57:04.956Z,99938.64
2022-12-29T07:02:09.735Z,99928.93
2022-12-29T07:07:12.966Z,99922.54
2022-12-29T07:12:16.173Z,99924.06
2022-12-29T07:17:20.543Z,99910.77
2022-12-29T07:22:23.710Z,99912.30
2022-12-29T07:27:26.932Z,99914.15
2022-12-29T07:32:33.879Z,99917.85
2022-12-29T07:37:37.068Z,99922.76
2022-12-29T07:42:40.191Z,99921.81
2022-12-29T07:47:51.117Z,99920.92
2022-12-29T07:52:56.026Z,99921.40
2022-12-29T07:57:59.171Z,99918.60
2022-12-29T08:03:02.695Z,99910.63
2022-12-29T08:08:07.620Z,99904.52
2022-12-29T08:13:10.774Z,99899.36
2022-12-29T08:18:13.949Z,99899.70
2022-12-29T08:23:17.070Z,99897.60
2022-12-29T08:28:20.203Z,99895.54
2022-12-29T08:33:23.402Z,99899.77
2022-12-29T08:38:29.479Z,99906.63
2022-12-29T08:43:32.838Z,99916.75
2022-12-29T08:48:36.026Z,99923.92
2022-12-29T08:53:39.273Z,99929.46
2022-12-29T08:58:42.431Z,99919.72
2022-12-29T09:04:13.449Z,99916.70
2022-12-29T09:09:09.634Z,99917.31
2022-12-29T09:14:12.976Z,99908.27
2022-12-29T09:19:16.042Z,99906.30
2022-12-29T09:24:19.189Z,99901.17
2022-12-29T09:29:22.407Z,99902.79
2022-12-29T09:34:25.576Z,99900.63
2022-12-29T09:39:28.769Z,99903.46
2022-12-29T09:44:59.581Z,99901.03
2022-12-29T09:50:28.537Z,99885.77
2022-12-29T09:55:56.514Z,99881.90
2022-12-29T10:01:05.002Z,99877.05
2022-12-29T10:06:15.309Z,99873.97
2022-12-29T10:11:47.688Z,99869.17
2022-12-29T10:17:02.751Z,99860.89
2022-12-29T10:22:33.705Z,99856.23
2022-12-29T10:27:37.316Z,99851.10
2022-12-29T10:32:55.514Z,99851.95
2022-12-29T10:38:32.094Z,99849.96
2022-12-29T10:43:50.333Z,99843.46
2022-12-29T10:48:53.759Z,99834.77
2022-12-29T10:54:05.274Z,99833.61
2022-12-29T10:59:29.105Z,99828.13
2022-12-29T11:04:54.332Z,99833.92
2022-12-29T11:10:37.865Z,99833.17
2022-12-29T11:15:48.311Z,99833.15
2022-12-29T11:21:00.520Z,99820.71
2022-12-29T11:26:11.479Z,99816.33
2022-12-29T11:31:19.304Z,99817.60
2022-12-29T11:36:25.681Z,99823.91
2022-12-29T11:41:33.118Z,99826.20
2022-12-29T11:46:39.689Z,99823.30
2022-12-29T11:51:48.703Z,99817.23
2022-12-29T11:56:53.114Z,99818.60
2022-12-29T12:01:58.048Z,99807.77
2022-12-29T12:07:16.848Z,99809.08
2022-12-29T12:12:27.483Z,99806.98
2022-12-29T12:17:39.566Z,99807.96
2022-12-29T12:22:56.705Z,99803.65
2022-12-29T12:28:12.223Z,99798.65
2022-12-29T12:33:38.146Z,99794.99
2022-12-29T12:39:02.157Z,99789.59
2022-12-29T12:44:37.669Z,99777.58
2022-12-29T12:49:59.097Z,99766.52
2022-12-29T12:55:38.018Z,99767.13
2022-12-29T13:01:09.610Z,99766.22
2022-12-29T13:06:22.119Z,99771.43
2022-12-29T13:11:43.388Z,99779.93
2022-12-29T13:17:24.771Z,99781.32
2022-12-29T13:22:33.951Z,99788.70
2022-12-29T13:27:50.665Z,99785.14
2022-12-29T13:33:21.713Z,99786.00
2022-12-29T13:38:55.038Z,99777.19
2022-12-29T13:43:59.425Z,99788.79
2022-12-29T13:49:08.419Z,99786.40
2022-12-29T13:54:27.007Z,99783.93
2022-12-29T13:59:42.024Z,99795.79
2022-12-29T14:05:25.406Z,99802.98
2022-12-29T14:10:31.009Z,99799.23
2022-12-29T14:15:42.412Z,99805.19
2022-12-29T14:21:03.405Z,99806.48
2022-12-29T14:26:06.508Z,99793.67
2022-12-29T14:31:16.088Z,99790.08
2022-12-29T14:36:34.708Z,99787.89
2022-12-29T14:41:40.493Z,99781.34
2022-12-29T14:46:58.166Z,99778.13
2022-12-29T14:52:20.678Z,99782.36
2022-12-29T14:57:32.839Z,99782.25
2022-12-29T15:02:41.128Z,99788.59
2022-12-29T15:07:44.541Z,99799.08
2022-12-29T15:12:53.740Z,99799.47
2022-12-29T15:17:57.072Z,99802.54
2022-12-29T15:23:17.285Z,99800.40
2022-12-29T15:28:22.026Z,99796.93
2022-12-29T15:33:28.788Z,99796.90
2022-12-29T15:38:38.657Z,99798.14
2022-12-29T15:43:55.892Z,99801.24
2022-12-29T15:48:59.563Z,99809.66
2022-12-29T15:54:03.852Z,99808.95
2022-12-29T15:59:25.319Z,99804.84
2022-12-29T16:04:43.328Z,99798.61
2022-12-29T16:09:59.211Z,99803.14
2022-12-29T16:15:09.442Z,99800.60
2022-12-29T16:20:21.050Z,99799.56
2022-12-29T16:25:26.198Z,99803.33
2022-12-29T16:30:34.292Z,99804.69
2022-12-29T16:35:47.759Z,99808.13
2022-12-29T16:40:58.021Z,99814.85
2022-12-29T16:46:01.439Z,99821.73
2022-12-29T16:51:14.739Z,99816.27
2022-12-29T16:56:28.249Z,99821.67
2022-12-29T17:01:32.342Z,99820.80
2022-12-29T17:06:35.698Z,99821.73
2022-12-29T17:12:02.949Z,99823.05
2022-12-29T17:17:41.147Z,99819.22
2022-12-29T17:22:44.420Z,99820.94
2022-12-29T17:27:54.074Z,99822.42
2022-12-29T17:33:03.560Z,99818.94
2022-12-29T17:38:42.524Z,99817.38
2022-12-29T17:43:45.818Z,99821.59
2022-12-29T17:48:53.520Z,99818.58
2022-12-29T17:53:57.263Z,99815.34
2022-12-29T17:59:00.487Z,99810.71
2022-12-29T18:04:03.831Z,99809.13
2022-12-29T18:09:09.525Z,99820.69
2022-12-29T18:14:14.685Z,99826.13
2022-12-29T18:19:17.831Z,99830.57
2022-12-29T18:24:20.988Z,99832.58
2022-12-29T18:29:24.291Z,99837.09
2022-12-29T18:34:27.498Z,99834.77
2022-12-29T18:39:30.988Z,99838.02
2022-12-29T18:44:34.766Z,99832.98
2022-12-29T18:49:37.904Z,99825.66
2022-12-29T18:54:41.170Z,99829.07
2022-12-29T18:59:44.352Z,99828.67
2022-12-29T19:04:51.406Z,99833.52
2022-12-29T19:09:56.322Z,99826.23
2022-12-29T19:14:59.509Z,99824.88
2022-12-29T19:20:02.749Z,99823.86
2022-12-29T19:25:06.891Z,99825.59
2022-12-29T19:30:13.109Z,99830.72
2022-12-29T19:35:16.516Z,99827.66
2022-12-29T19:40:23.886Z,99829.46
2022-12-29T19:45:27.152Z,99834.23
2022-12-29T19:50:30.236Z,99833.30
2022-12-29T19:55:33.457Z,99832.38
2022-12-29T20:00:40.221Z,99836.20
2022-12-29T20:05:49.053Z,99836.99
2022-12-29T20:11:00.915Z,99836.80
2022-12-29T20:16:07.815Z,99836.69
2022-12-29T20:21:15.453Z,99828.84
2022-12-29T20:26:22.453Z,99829.46
2022-12-29T20:31:29.666Z,99828.60
2022-12-29T20:36:35.123Z,99832.30
2022-12-29T20:41:38.296Z,99833.44
2022-12-29T20:46:44.100Z,99835.47
2022-12-29T20:52:05.891Z,99838.55
2022-12-29T20:57:10.096Z,99835.13
2022-12-29T21:02:22.309Z,99841.11
2022-12-29T21:07:25.924Z,99844.79
2022-12-29T21:12:29.318Z,99840.35
2022-12-29T21:17:32.558Z,99839.23
2022-12-29T21:22:35.711Z,99837.64
2022-12-29T21:27:39.008Z,99839.13
2022-12-29T21:32:42.228Z,99843.98
2022-12-29T21:37:45.422Z,99842.58
2022-12-29T21:42:49.255Z,99843.21
2022-12-29T21:48:18.778Z,99837.54
2022-12-29T21:53:21.900Z,99837.42
2022-12-29T21:58:43.488Z,99839.23
2022-12-29T22:04:05.414Z,99838.61
2022-12-29T22:09:27.244Z,99844.54
2022-12-29T22:14:30.354Z,99843.71
2022-12-29T22:19:33.528Z,99841.58
2022-12-29T22:24:36.640Z,99844.31
2022-12-29T22:29:41.303Z,99858.41
2022-12-29T22:34:44.480Z,99861.50
2022-12-29T22:39:47.686Z,99867.66
2022-12-29T22:44:50.907Z,99866.99
2022-12-29T22:49:54.197Z,99871.20
2022-12-29T22:55:01.693Z,99871.27
2022-12-29T23:00:09.349Z,99872.24
2022-12-29T23:05:12.517Z,99875.63
2022-12-29T23:10:15.821Z,99881.88
2022-12-29T23:15:18.960Z,99892.56
2022-12-29T23:20:22.124Z,99889.38
2022-12-29T23:25:25.307Z,99896.24
2022-12-29T23:30:28.464Z,99900.70
2022-12-29T23:35:31.595Z,99902.01
2022-12-29T23:40:34.735Z,99909.04
2022-12-29T23:45:39.184Z,99904.27
2022-12-29T23:50:43.432Z,99899.11
2022-12-29T23:55:53.727Z,99897.23
